sensor_id;sensor_type;location;lat;lon;timestamp;P1;durP1;ratioP1;P2;durP2;ratioP2
20369;SDS011;10344;47.592;9.600;2022-11-15T00:00:52;4.60;;;4.13;;
20369;SDS011;10344;47.592;9.600;2022-11-15T00:03:21;5.63;;;3.90;;
20369;SDS011;10344;47.592;9.600;2022-11-15T00:05:49;4.28;;;3.85;;
20369;SDS011;10344;47.592;9.600;2022-11-15T00:08:14;5.10;;;4.05;;
20369;SDS011;10344;47.592;9.600;2022-11-15T00:10:41;4.70;;;4.18;;
20369;SDS011;10344;47.592;9.600;2022-11-15T00:13:07;4.80;;;4.30;;
20369;SDS011;10344;47.592;9.600;2022-11-15T00:15:39;5.15;;;4.50;;
20369;SDS011;10344;47.592;9.600;2022-11-15T00:18:09;5.03;;;4.05;;
20369;SDS011;10344;47.592;9.600;2022-11-15T00:20:37;4.55;;;3.88;;
20369;SDS011;10344;47.592;9.600;2022-11-15T00:23:05;4.70;;;4.10;;
20369;SDS011;10344;47.592;9.600;2022-11-15T00:25:31;4.53;;;4.13;;
20369;SDS011;10344;47.592;9.600;2022-11-15T00:27:58;4.77;;;4.10;;
20369;SDS011;10344;47.592;9.600;2022-11-15T00:30:27;4.90;;;4.15;;
20369;SDS011;10344;47.592;9.600;2022-11-15T00:32:53;4.75;;;3.95;;
20369;SDS011;10344;47.592;9.600;2022-11-15T00:35:19;5.03;;;4.43;;
20369;SDS011;10344;47.592;9.600;2022-11-15T00:37:45;4.47;;;3.70;;
20369;SDS011;10344;47.592;9.600;2022-11-15T00:40:12;3.90;;;3.50;;
20369;SDS011;10344;47.592;9.600;2022-11-15T00:42:38;4.18;;;3.75;;
20369;SDS011;10344;47.592;9.600;2022-11-15T00:45:04;4.93;;;4.40;;
20369;SDS011;10344;47.592;9.600;2022-11-15T00:47:30;4.93;;;4.05;;
20369;SDS011;10344;47.592;9.600;2022-11-15T00:49:55;4.97;;;4.03;;
20369;SDS011;10344;47.592;9.600;2022-11-15T00:52:21;3.80;;;3.40;;
20369;SDS011;10344;47.592;9.600;2022-11-15T00:54:47;3.80;;;3.42;;
20369;SDS011;10344;47.592;9.600;2022-11-15T00:57:15;3.47;;;3.17;;
20369;SDS011;10344;47.592;9.600;2022-11-15T00:59:40;3.92;;;3.45;;
20369;SDS011;10344;47.592;9.600;2022-11-15T01:02:08;4.35;;;3.40;;
20369;SDS011;10344;47.592;9.600;2022-11-15T01:04:34;3.63;;;3.33;;
20369;SDS011;10344;47.592;9.600;2022-11-15T01:07:00;4.30;;;3.58;;
20369;SDS011;10344;47.592;9.600;2022-11-15T01:09:25;3.40;;;3.10;;
20369;SDS011;10344;47.592;9.600;2022-11-15T01:11:51;3.97;;;3.53;;
20369;SDS011;10344;47.592;9.600;2022-11-15T01:14:17;3.50;;;3.20;;
20369;SDS011;10344;47.592;9.600;2022-11-15T01:16:42;4.00;;;3.60;;
20369;SDS011;10344;47.592;9.600;2022-11-15T01:19:10;4.28;;;3.50;;
20369;SDS011;10344;47.592;9.600;2022-11-15T01:21:36;4.27;;;3.50;;
20369;SDS011;10344;47.592;9.600;2022-11-15T01:24:04;5.55;;;3.65;;
20369;SDS011;10344;47.592;9.600;2022-11-15T01:26:32;6.87;;;3.80;;
20369;SDS011;10344;47.592;9.600;2022-11-15T01:28:58;4.10;;;3.70;;
20369;SDS011;10344;47.592;9.600;2022-11-15T01:31:24;3.90;;;3.50;;
20369;SDS011;10344;47.592;9.600;2022-11-15T01:33:52;4.18;;;3.78;;
20369;SDS011;10344;47.592;9.600;2022-11-15T01:36:21;3.40;;;3.10;;
20369;SDS011;10344;47.592;9.600;2022-11-15T01:38:53;4.85;;;4.10;;
20369;SDS011;10344;47.592;9.600;2022-11-15T01:41:23;4.68;;;4.00;;
20369;SDS011;10344;47.592;9.600;2022-11-15T01:47:06;5.72;;;4.70;;
20369;SDS011;10344;47.592;9.600;2022-11-15T01:52:33;4.93;;;4.32;;
20369;SDS011;10344;47.592;9.600;2022-11-15T01:57:32;5.40;;;4.72;;
20369;SDS011;10344;47.592;9.600;2022-11-15T01:59:59;5.68;;;4.63;;
20369;SDS011;10344;47.592;9.600;2022-11-15T02:02:28;5.72;;;4.68;;
20369;SDS011;10344;47.592;9.600;2022-11-15T02:04:58;4.88;;;4.38;;
20369;SDS011;10344;47.592;9.600;2022-11-15T02:07:24;4.93;;;4.43;;
20369;SDS011;10344;47.592;9.600;2022-11-15T02:09:53;4.45;;;3.88;;
20369;SDS011;10344;47.592;9.600;2022-11-15T02:12:22;4.75;;;4.30;;
20369;SDS011;10344;47.592;9.600;2022-11-15T02:14:51;4.18;;;3.78;;
20369;SDS011;10344;47.592;9.600;2022-11-15T02:31:07;4.60;;;4.10;;
20369;SDS011;10344;47.592;9.600;2022-11-15T02:36:44;4.60;;;4.15;;
20369;SDS011;10344;47.592;9.600;2022-11-15T02:39:39;5.78;;;4.35;;
20369;SDS011;10344;47.592;9.600;2022-11-15T02:45:17;5.83;;;4.53;;
20369;SDS011;10344;47.592;9.600;2022-11-15T02:47:48;4.95;;;4.45;;
20369;SDS011;10344;47.592;9.600;2022-11-15T02:50:17;5.50;;;5.00;;
20369;SDS011;10344;47.592;9.600;2022-11-15T02:52:46;6.40;;;5.10;;
20369;SDS011;10344;47.592;9.600;2022-11-15T03:00:26;5.05;;;4.63;;
20369;SDS011;10344;47.592;9.600;2022-11-15T03:10:48;4.80;;;4.30;;
20369;SDS011;10344;47.592;9.600;2022-11-15T03:13:27;6.22;;;4.90;;
20369;SDS011;10344;47.592;9.600;2022-11-15T03:16:27;5.23;;;4.67;;
20369;SDS011;10344;47.592;9.600;2022-11-15T03:19:01;7.73;;;5.37;;
20369;SDS011;10344;47.592;9.600;2022-11-15T03:21:32;5.88;;;4.97;;
20369;SDS011;10344;47.592;9.600;2022-11-15T03:24:00;5.38;;;4.88;;
20369;SDS011;10344;47.592;9.600;2022-11-15T03:26:33;5.22;;;4.63;;
20369;SDS011;10344;47.592;9.600;2022-11-15T03:29:06;5.28;;;4.78;;
20369;SDS011;10344;47.592;9.600;2022-11-15T03:31:53;5.78;;;4.45;;
20369;SDS011;10344;47.592;9.600;2022-11-15T03:37:04;6.60;;;5.20;;
20369;SDS011;10344;47.592;9.600;2022-11-15T03:39:31;6.60;;;5.07;;
20369;SDS011;10344;47.592;9.600;2022-11-15T03:42:34;5.28;;;4.75;;
20369;SDS011;10344;47.592;9.600;2022-11-15T03:44:59;5.20;;;4.70;;
20369;SDS011;10344;47.592;9.600;2022-11-15T03:47:33;7.80;;;5.30;;
20369;SDS011;10344;47.592;9.600;2022-11-15T03:50:08;6.63;;;4.93;;
20369;SDS011;10344;47.592;9.600;2022-11-15T03:52:41;5.72;;;5.03;;
20369;SDS011;10344;47.592;9.600;2022-11-15T03:55:11;7.20;;;5.35;;
20369;SDS011;10344;47.592;9.600;2022-11-15T03:57:38;5.53;;;4.90;;
20369;SDS011;10344;47.592;9.600;2022-11-15T04:00:04;5.93;;;5.33;;
20369;SDS011;10344;47.592;9.600;2022-11-15T04:02:30;5.93;;;5.25;;
20369;SDS011;10344;47.592;9.600;2022-11-15T04:04:56;5.53;;;5.00;;
20369;SDS011;10344;47.592;9.600;2022-11-15T04:07:22;6.73;;;5.27;;
20369;SDS011;10344;47.592;9.600;2022-11-15T04:09:54;7.00;;;5.68;;
20369;SDS011;10344;47.592;9.600;2022-11-15T04:12:29;6.22;;;5.40;;
20369;SDS011;10344;47.592;9.600;2022-11-15T04:14:59;6.53;;;5.88;;
20369;SDS011;10344;47.592;9.600;2022-11-15T04:17:39;7.13;;;6.43;;
20369;SDS011;10344;47.592;9.600;2022-11-15T04:20:12;9.30;;;7.85;;
20369;SDS011;10344;47.592;9.600;2022-11-15T04:22:59;10.68;;;8.52;;
20369;SDS011;10344;47.592;9.600;2022-11-15T04:25:44;11.70;;;9.00;;
20369;SDS011;10344;47.592;9.600;2022-11-15T04:28:15;11.57;;;9.27;;
20369;SDS011;10344;47.592;9.600;2022-11-15T04:30:40;11.55;;;9.43;;
20369;SDS011;10344;47.592;9.600;2022-11-15T04:33:06;15.52;;;11.00;;
20369;SDS011;10344;47.592;9.600;2022-11-15T04:35:34;15.10;;;11.93;;
20369;SDS011;10344;47.592;9.600;2022-11-15T04:38:00;16.15;;;13.52;;
20369;SDS011;10344;47.592;9.600;2022-11-15T04:40:32;15.85;;;12.85;;
20369;SDS011;10344;47.592;9.600;2022-11-15T04:42:57;14.00;;;11.27;;
20369;SDS011;10344;47.592;9.600;2022-11-15T04:45:26;13.13;;;10.80;;
20369;SDS011;10344;47.592;9.600;2022-11-15T04:47:51;13.43;;;11.00;;
20369;SDS011;10344;47.592;9.600;2022-11-15T04:50:19;13.82;;;11.77;;
20369;SDS011;10344;47.592;9.600;2022-11-15T04:52:51;12.73;;;10.83;;
20369;SDS011;10344;47.592;9.600;2022-11-15T04:55:23;14.93;;;11.48;;
20369;SDS011;10344;47.592;9.600;2022-11-15T04:57:56;15.18;;;11.95;;
20369;SDS011;10344;47.592;9.600;2022-11-15T05:00:26;13.63;;;10.65;;
20369;SDS011;10344;47.592;9.600;2022-11-15T05:02:53;12.02;;;9.95;;
20369;SDS011;10344;47.592;9.600;2022-11-15T05:05:37;13.77;;;11.23;;
20369;SDS011;10344;47.592;9.600;2022-11-15T05:08:07;12.18;;;10.00;;
20369;SDS011;10344;47.592;9.600;2022-11-15T05:10:33;16.05;;;12.10;;
20369;SDS011;10344;47.592;9.600;2022-11-15T05:12:58;14.35;;;11.85;;
20369;SDS011;10344;47.592;9.600;2022-11-15T05:15:26;14.63;;;11.38;;
20369;SDS011;10344;47.592;9.600;2022-11-15T05:17:56;12.97;;;11.07;;
20369;SDS011;10344;47.592;9.600;2022-11-15T05:20:24;20.40;;;14.70;;
20369;SDS011;10344;47.592;9.600;2022-11-15T05:22:52;20.67;;;15.75;;
20369;SDS011;10344;47.592;9.600;2022-11-15T05:25:21;16.45;;;12.82;;
20369;SDS011;10344;47.592;9.600;2022-11-15T05:27:49;16.77;;;12.50;;
20369;SDS011;10344;47.592;9.600;2022-11-15T05:30:20;15.35;;;11.85;;
20369;SDS011;10344;47.592;9.600;2022-11-15T05:32:48;16.48;;;12.30;;
20369;SDS011;10344;47.592;9.600;2022-11-15T05:35:36;19.65;;;13.80;;
20369;SDS011;10344;47.592;9.600;2022-11-15T05:38:03;17.60;;;12.85;;
20369;SDS011;10344;47.592;9.600;2022-11-15T05:40:29;19.57;;;12.97;;
20369;SDS011;10344;47.592;9.600;2022-11-15T05:42:55;21.13;;;14.82;;
20369;SDS011;10344;47.592;9.600;2022-11-15T05:45:22;23.20;;;16.87;;
20369;SDS011;10344;47.592;9.600;2022-11-15T05:47:48;22.15;;;15.98;;
20369;SDS011;10344;47.592;9.600;2022-11-15T05:50:15;21.15;;;15.60;;
20369;SDS011;10344;47.592;9.600;2022-11-15T05:52:44;20.92;;;15.50;;
20369;SDS011;10344;47.592;9.600;2022-11-15T05:55:12;21.15;;;15.98;;
20369;SDS011;10344;47.592;9.600;2022-11-15T05:57:40;20.42;;;15.00;;
20369;SDS011;10344;47.592;9.600;2022-11-15T06:00:06;18.48;;;14.20;;
20369;SDS011;10344;47.592;9.600;2022-11-15T06:02:35;18.87;;;14.53;;
20369;SDS011;10344;47.592;9.600;2022-11-15T06:05:01;18.77;;;14.40;;
20369;SDS011;10344;47.592;9.600;2022-11-15T06:07:26;15.20;;;12.13;;
20369;SDS011;10344;47.592;9.600;2022-11-15T06:09:53;19.23;;;14.60;;
20369;SDS011;10344;47.592;9.600;2022-11-15T06:12:19;18.10;;;13.77;;
20369;SDS011;10344;47.592;9.600;2022-11-15T06:14:45;21.30;;;14.90;;
20369;SDS011;10344;47.592;9.600;2022-11-15T06:17:10;14.43;;;11.73;;
20369;SDS011;10344;47.592;9.600;2022-11-15T06:19:38;16.15;;;13.30;;
20369;SDS011;10344;47.592;9.600;2022-11-15T06:22:06;21.75;;;15.63;;
20369;SDS011;10344;47.592;9.600;2022-11-15T06:24:34;19.67;;;14.82;;
20369;SDS011;10344;47.592;9.600;2022-11-15T06:27:00;20.87;;;16.90;;
20369;SDS011;10344;47.592;9.600;2022-11-15T06:29:25;18.17;;;13.60;;
20369;SDS011;10344;47.592;9.600;2022-11-15T06:31:51;19.48;;;14.93;;
20369;SDS011;10344;47.592;9.600;2022-11-15T06:34:17;18.50;;;15.07;;
20369;SDS011;10344;47.592;9.600;2022-11-15T06:36:43;19.80;;;14.50;;
20369;SDS011;10344;47.592;9.600;2022-11-15T06:39:09;17.40;;;13.17;;
20369;SDS011;10344;47.592;9.600;2022-11-15T06:41:36;20.98;;;14.30;;
20369;SDS011;10344;47.592;9.600;2022-11-15T06:44:04;20.20;;;14.40;;
20369;SDS011;10344;47.592;9.600;2022-11-15T06:46:30;20.20;;;15.13;;
20369;SDS011;10344;47.592;9.600;2022-11-15T06:48:55;16.80;;;12.90;;
20369;SDS011;10344;47.592;9.600;2022-11-15T06:51:21;19.15;;;13.85;;
20369;SDS011;10344;47.592;9.600;2022-11-15T06:53:47;21.23;;;14.47;;
20369;SDS011;10344;47.592;9.600;2022-11-15T06:56:12;18.77;;;13.63;;
20369;SDS011;10344;47.592;9.600;2022-11-15T06:58:40;19.83;;;14.32;;
20369;SDS011;10344;47.592;9.600;2022-11-15T07:01:07;20.63;;;14.05;;
20369;SDS011;10344;47.592;9.600;2022-11-15T07:03:35;19.67;;;14.27;;
20369;SDS011;10344;47.592;9.600;2022-11-15T07:26:45;18.58;;;13.68;;
20369;SDS011;10344;47.592;9.600;2022-11-15T07:29:10;14.18;;;11.93;;
20369;SDS011;10344;47.592;9.600;2022-11-15T07:31:38;14.38;;;11.45;;
20369;SDS011;10344;47.592;9.600;2022-11-15T07:34:04;14.38;;;12.15;;
20369;SDS011;10344;47.592;9.600;2022-11-15T07:36:30;14.30;;;10.70;;
20369;SDS011;10344;47.592;9.600;2022-11-15T07:38:57;12.47;;;10.60;;
20369;SDS011;10344;47.592;9.600;2022-11-15T07:51:51;6.82;;;6.13;;
20369;SDS011;10344;47.592;9.600;2022-11-15T07:54:17;6.68;;;6.00;;
20369;SDS011;10344;47.592;9.600;2022-11-15T07:56:43;6.30;;;5.70;;
20369;SDS011;10344;47.592;9.600;2022-11-15T07:59:11;6.80;;;6.10;;
20369;SDS011;10344;47.592;9.600;2022-11-15T08:01:38;6.40;;;5.80;;
20369;SDS011;10344;47.592;9.600;2022-11-15T08:04:04;7.10;;;6.40;;
20369;SDS011;10344;47.592;9.600;2022-11-15T08:06:29;7.13;;;6.43;;
20369;SDS011;10344;47.592;9.600;2022-11-15T08:08:55;7.60;;;6.90;;
20369;SDS011;10344;47.592;9.600;2022-11-15T08:11:25;7.45;;;6.68;;
20369;SDS011;10344;47.592;9.600;2022-11-15T08:13:51;6.93;;;6.28;;
20369;SDS011;10344;47.592;9.600;2022-11-15T08:16:19;7.18;;;6.47;;
20369;SDS011;10344;47.592;9.600;2022-11-15T08:18:45;6.82;;;6.22;;
20369;SDS011;10344;47.592;9.600;2022-11-15T08:21:11;7.20;;;6.45;;
20369;SDS011;10344;47.592;9.600;2022-11-15T08:23:44;7.18;;;6.47;;
20369;SDS011;10344;47.592;9.600;2022-11-15T08:26:10;8.23;;;7.43;;
20369;SDS011;10344;47.592;9.600;2022-11-15T08:28:36;9.45;;;8.50;;
20369;SDS011;10344;47.592;9.600;2022-11-15T08:31:02;11.50;;;10.23;;
20369;SDS011;10344;47.592;9.600;2022-11-15T08:33:28;13.68;;;12.27;;
20369;SDS011;10344;47.592;9.600;2022-11-15T08:35:58;13.23;;;11.93;;
20369;SDS011;10344;47.592;9.600;2022-11-15T08:38:27;12.48;;;11.27;;
20369;SDS011;10344;47.592;9.600;2022-11-15T08:41:00;12.75;;;11.45;;
20369;SDS011;10344;47.592;9.600;2022-11-15T08:43:31;10.50;;;9.50;;
20369;SDS011;10344;47.592;9.600;2022-11-15T08:45:57;11.30;;;9.25;;
20369;SDS011;10344;47.592;9.600;2022-11-15T08:48:25;9.02;;;7.32;;
20369;SDS011;10344;47.592;9.600;2022-11-15T08:50:54;7.10;;;6.40;;
20369;SDS011;10344;47.592;9.600;2022-11-15T08:53:21;7.60;;;6.22;;
20369;SDS011;10344;47.592;9.600;2022-11-15T08:55:47;6.40;;;5.80;;
20369;SDS011;10344;47.592;9.600;2022-11-15T08:58:13;5.63;;;5.13;;
20369;SDS011;10344;47.592;9.600;2022-11-15T09:00:38;5.50;;;5.00;;
20369;SDS011;10344;47.592;9.600;2022-11-15T09:03:05;4.90;;;4.50;;
20369;SDS011;10344;47.592;9.600;2022-11-15T09:05:31;6.82;;;5.05;;
20369;SDS011;10344;47.592;9.600;2022-11-15T09:07:58;5.18;;;4.68;;
20369;SDS011;10344;47.592;9.600;2022-11-15T09:10:24;5.45;;;4.95;;
20369;SDS011;10344;47.592;9.600;2022-11-15T09:12:49;7.03;;;6.33;;
20369;SDS011;10344;47.592;9.600;2022-11-15T09:15:15;6.60;;;5.90;;
20369;SDS011;10344;47.592;9.600;2022-11-15T09:17:41;6.97;;;6.28;;
20369;SDS011;10344;47.592;9.600;2022-11-15T09:20:07;7.18;;;6.47;;
20369;SDS011;10344;47.592;9.600;2022-11-15T09:22:34;6.70;;;6.00;;
20369;SDS011;10344;47.592;9.600;2022-11-15T09:25:01;6.25;;;5.65;;
20369;SDS011;10344;47.592;9.600;2022-11-15T09:27:33;6.80;;;6.10;;
20369;SDS011;10344;47.592;9.600;2022-11-15T09:29:58;6.20;;;5.60;;
20369;SDS011;10344;47.592;9.600;2022-11-15T09:32:27;6.07;;;5.28;;
20369;SDS011;10344;47.592;9.600;2022-11-15T09:34:55;6.80;;;5.57;;
20369;SDS011;10344;47.592;9.600;2022-11-15T09:37:21;7.47;;;5.78;;
20369;SDS011;10344;47.592;9.600;2022-11-15T09:39:47;6.35;;;5.68;;
20369;SDS011;10344;47.592;9.600;2022-11-15T09:48:35;7.25;;;6.28;;
20369;SDS011;10344;47.592;9.600;2022-11-15T09:51:08;8.18;;;6.60;;
20369;SDS011;10344;47.592;9.600;2022-11-15T09:54:11;8.30;;;7.10;;
20369;SDS011;10344;47.592;9.600;2022-11-15T09:56:40;7.63;;;6.90;;
20369;SDS011;10344;47.592;9.600;2022-11-15T10:04:47;7.97;;;6.80;;
20369;SDS011;10344;47.592;9.600;2022-11-15T10:07:27;7.03;;;6.23;;
20369;SDS011;10344;47.592;9.600;2022-11-15T10:11:08;7.80;;;7.00;;
20369;SDS011;10344;47.592;9.600;2022-11-15T10:13:34;7.35;;;6.53;;
20369;SDS011;10344;47.592;9.600;2022-11-15T10:18:50;7.35;;;6.65;;
20369;SDS011;10344;47.592;9.600;2022-11-15T10:21:35;8.00;;;6.90;;
20369;SDS011;10344;47.592;9.600;2022-11-15T10:24:12;8.48;;;7.57;;
20369;SDS011;10344;47.592;9.600;2022-11-15T10:26:46;8.00;;;7.20;;
20369;SDS011;10344;47.592;9.600;2022-11-15T10:29:17;8.27;;;7.40;;
20369;SDS011;10344;47.592;9.600;2022-11-15T10:31:46;8.63;;;7.72;;
20369;SDS011;10344;47.592;9.600;2022-11-15T10:34:14;8.18;;;7.15;;
20369;SDS011;10344;47.592;9.600;2022-11-15T10:36:45;8.57;;;6.93;;
20369;SDS011;10344;47.592;9.600;2022-11-15T10:39:20;9.60;;;7.93;;
20369;SDS011;10344;47.592;9.600;2022-11-15T10:41:48;8.23;;;7.35;;
20369;SDS011;10344;47.592;9.600;2022-11-15T10:47:04;9.27;;;8.20;;
20369;SDS011;10344;47.592;9.600;2022-11-15T10:49:32;11.00;;;9.02;;
20369;SDS011;10344;47.592;9.600;2022-11-15T10:55:05;10.20;;;8.52;;
20369;SDS011;10344;47.592;9.600;2022-11-15T10:58:06;9.52;;;8.40;;
20369;SDS011;10344;47.592;9.600;2022-11-15T11:01:19;9.07;;;8.02;;
20369;SDS011;10344;47.592;9.600;2022-11-15T11:04:05;9.80;;;8.77;;
20369;SDS011;10344;47.592;9.600;2022-11-15T11:09:37;10.85;;;9.13;;
20369;SDS011;10344;47.592;9.600;2022-11-15T11:12:11;10.38;;;9.13;;
20369;SDS011;10344;47.592;9.600;2022-11-15T11:14:48;10.73;;;9.60;;
20369;SDS011;10344;47.592;9.600;2022-11-15T11:17:36;12.00;;;10.27;;
20369;SDS011;10344;47.592;9.600;2022-11-15T11:20:56;15.38;;;12.82;;
20369;SDS011;10344;47.592;9.600;2022-11-15T11:23:41;16.95;;;14.98;;
20369;SDS011;10344;47.592;9.600;2022-11-15T11:29:03;19.50;;;16.95;;
20369;SDS011;10344;47.592;9.600;2022-11-15T11:36:03;15.30;;;12.60;;
20369;SDS011;10344;47.592;9.600;2022-11-15T11:41:08;14.05;;;11.90;;
20369;SDS011;10344;47.592;9.600;2022-11-15T11:49:59;11.15;;;9.90;;
20369;SDS011;10344;47.592;9.600;2022-11-15T11:53:05;11.10;;;9.98;;
20369;SDS011;10344;47.592;9.600;2022-11-15T11:56:01;11.75;;;10.40;;
20369;SDS011;10344;47.592;9.600;2022-11-15T11:58:39;10.60;;;9.50;;
20369;SDS011;10344;47.592;9.600;2022-11-15T12:01:34;11.57;;;10.38;;
20369;SDS011;10344;47.592;9.600;2022-11-15T12:04:40;12.25;;;11.05;;
20369;SDS011;10344;47.592;9.600;2022-11-15T12:07:31;12.00;;;10.80;;
20369;SDS011;10344;47.592;9.600;2022-11-15T12:10:15;11.20;;;9.98;;
20369;SDS011;10344;47.592;9.600;2022-11-15T12:13:06;12.00;;;10.63;;
20369;SDS011;10344;47.592;9.600;2022-11-15T12:15:39;12.10;;;10.85;;
20369;SDS011;10344;47.592;9.600;2022-11-15T12:18:26;10.60;;;9.50;;
20369;SDS011;10344;47.592;9.600;2022-11-15T12:20:56;11.10;;;9.90;;
20369;SDS011;10344;47.592;9.600;2022-11-15T12:23:32;12.27;;;10.98;;
20369;SDS011;10344;47.592;9.600;2022-11-15T12:26:19;11.80;;;10.57;;
20369;SDS011;10344;47.592;9.600;2022-11-15T12:28:52;11.23;;;9.88;;
20369;SDS011;10344;47.592;9.600;2022-11-15T12:31:59;11.65;;;10.45;;
20369;SDS011;10344;47.592;9.600;2022-11-15T12:37:32;11.40;;;10.23;;
20369;SDS011;10344;47.592;9.600;2022-11-15T12:45:56;13.00;;;11.60;;
20369;SDS011;10344;47.592;9.600;2022-11-15T12:51:04;11.77;;;10.48;;
20369;SDS011;10344;47.592;9.600;2022-11-15T12:53:31;12.83;;;11.10;;
20369;SDS011;10344;47.592;9.600;2022-11-15T12:58:51;14.63;;;12.30;;
20369;SDS011;10344;47.592;9.600;2022-11-15T13:06:53;13.75;;;11.27;;
20369;SDS011;10344;47.592;9.600;2022-11-15T13:11:57;13.13;;;11.50;;
20369;SDS011;10344;47.592;9.600;2022-11-15T13:14:46;13.43;;;11.52;;
20369;SDS011;10344;47.592;9.600;2022-11-15T13:17:31;12.82;;;11.50;;
20369;SDS011;10344;47.592;9.600;2022-11-15T13:33:55;12.87;;;10.83;;
20369;SDS011;10344;47.592;9.600;2022-11-15T13:36:28;12.50;;;11.13;;
20369;SDS011;10344;47.592;9.600;2022-11-15T13:41:58;12.68;;;11.15;;
20369;SDS011;10344;47.592;9.600;2022-11-15T13:44:29;13.30;;;10.65;;
20369;SDS011;10344;47.592;9.600;2022-11-15T13:47:02;12.38;;;10.55;;
20369;SDS011;10344;47.592;9.600;2022-11-15T13:49:39;11.75;;;10.30;;
20369;SDS011;10344;47.592;9.600;2022-11-15T13:52:06;11.20;;;9.45;;
20369;SDS011;10344;47.592;9.600;2022-11-15T13:54:41;11.60;;;9.50;;
20369;SDS011;10344;47.592;9.600;2022-11-15T13:57:38;10.98;;;9.38;;
20369;SDS011;10344;47.592;9.600;2022-11-15T14:02:53;9.82;;;8.52;;
20369;SDS011;10344;47.592;9.600;2022-11-15T14:05:24;9.15;;;7.32;;
20369;SDS011;10344;47.592;9.600;2022-11-15T14:07:56;7.22;;;6.53;;
20369;SDS011;10344;47.592;9.600;2022-11-15T14:10:33;8.23;;;6.80;;
20369;SDS011;10344;47.592;9.600;2022-11-15T14:13:02;7.93;;;7.13;;
20369;SDS011;10344;47.592;9.600;2022-11-15T14:15:41;6.97;;;6.07;;
20369;SDS011;10344;47.592;9.600;2022-11-15T14:21:37;8.15;;;6.68;;
20369;SDS011;10344;47.592;9.600;2022-11-15T14:24:50;6.80;;;5.78;;
20369;SDS011;10344;47.592;9.600;2022-11-15T14:28:08;6.97;;;6.25;;
20369;SDS011;10344;47.592;9.600;2022-11-15T14:31:11;7.40;;;6.30;;
20369;SDS011;10344;47.592;9.600;2022-11-15T14:33:38;6.93;;;6.22;;
20369;SDS011;10344;47.592;9.600;2022-11-15T14:36:14;6.75;;;6.05;;
20369;SDS011;10344;47.592;9.600;2022-11-15T14:38:42;8.00;;;6.85;;
20369;SDS011;10344;47.592;9.600;2022-11-15T14:41:35;7.93;;;6.20;;
20369;SDS011;10344;47.592;9.600;2022-11-15T14:44:05;7.65;;;5.97;;
20369;SDS011;10344;47.592;9.600;2022-11-15T14:46:33;7.80;;;6.45;;
20369;SDS011;10344;47.592;9.600;2022-11-15T14:49:01;8.10;;;6.67;;
20369;SDS011;10344;47.592;9.600;2022-11-15T14:51:28;7.00;;;5.70;;
20369;SDS011;10344;47.592;9.600;2022-11-15T14:53:54;9.30;;;7.47;;
20369;SDS011;10344;47.592;9.600;2022-11-15T14:56:22;7.60;;;6.30;;
20369;SDS011;10344;47.592;9.600;2022-11-15T14:58:49;11.70;;;9.13;;
20369;SDS011;10344;47.592;9.600;2022-11-15T15:01:28;12.75;;;8.93;;
20369;SDS011;10344;47.592;9.600;2022-11-15T15:04:04;9.48;;;7.53;;
20369;SDS011;10344;47.592;9.600;2022-11-15T15:06:36;7.93;;;6.77;;
20369;SDS011;10344;47.592;9.600;2022-11-15T15:09:28;8.43;;;7.03;;
20369;SDS011;10344;47.592;9.600;2022-11-15T15:12:33;9.82;;;7.85;;
20369;SDS011;10344;47.592;9.600;2022-11-15T15:15:04;12.70;;;9.30;;
20369;SDS011;10344;47.592;9.600;2022-11-15T15:17:38;11.15;;;9.93;;
20369;SDS011;10344;47.592;9.600;2022-11-15T15:20:07;13.48;;;10.25;;
20369;SDS011;10344;47.592;9.600;2022-11-15T15:22:43;11.32;;;9.43;;
20369;SDS011;10344;47.592;9.600;2022-11-15T15:27:48;10.48;;;8.10;;
20369;SDS011;10344;47.592;9.600;2022-11-15T15:30:14;9.45;;;8.35;;
20369;SDS011;10344;47.592;9.600;2022-11-15T15:32:40;11.50;;;9.18;;
20369;SDS011;10344;47.592;9.600;2022-11-15T15:35:07;10.77;;;9.07;;
20369;SDS011;10344;47.592;9.600;2022-11-15T15:37:37;10.17;;;8.63;;
20369;SDS011;10344;47.592;9.600;2022-11-15T15:40:08;9.18;;;8.13;;
20369;SDS011;10344;47.592;9.600;2022-11-15T15:42:44;8.90;;;7.78;;
20369;SDS011;10344;47.592;9.600;2022-11-15T15:45:13;10.23;;;7.72;;
20369;SDS011;10344;47.592;9.600;2022-11-15T15:47:43;9.13;;;7.22;;
20369;SDS011;10344;47.592;9.600;2022-11-15T15:52:49;8.02;;;7.20;;
20369;SDS011;10344;47.592;9.600;2022-11-15T15:55:21;9.90;;;7.70;;
20369;SDS011;10344;47.592;9.600;2022-11-15T15:57:51;8.90;;;7.50;;
20369;SDS011;10344;47.592;9.600;2022-11-15T16:00:18;10.00;;;8.30;;
20369;SDS011;10344;47.592;9.600;2022-11-15T16:02:48;10.32;;;8.45;;
20369;SDS011;10344;47.592;9.600;2022-11-15T16:05:15;9.82;;;8.27;;
20369;SDS011;10344;47.592;9.600;2022-11-15T16:07:43;10.50;;;8.13;;
20369;SDS011;10344;47.592;9.600;2022-11-15T16:13:12;8.02;;;6.95;;
20369;SDS011;10344;47.592;9.600;2022-11-15T16:15:48;8.55;;;7.15;;
20369;SDS011;10344;47.592;9.600;2022-11-15T16:18:18;7.72;;;6.68;;
20369;SDS011;10344;47.592;9.600;2022-11-15T16:20:45;8.48;;;7.18;;
20369;SDS011;10344;47.592;9.600;2022-11-15T16:23:19;7.65;;;6.70;;
20369;SDS011;10344;47.592;9.600;2022-11-15T16:25:50;9.02;;;7.35;;
20369;SDS011;10344;47.592;9.600;2022-11-15T16:28:33;7.65;;;6.28;;
20369;SDS011;10344;47.592;9.600;2022-11-15T16:33:29;8.27;;;6.63;;
20369;SDS011;10344;47.592;9.600;2022-11-15T16:38:50;8.77;;;7.20;;
20369;SDS011;10344;47.592;9.600;2022-11-15T16:41:29;6.93;;;6.18;;
20369;SDS011;10344;47.592;9.600;2022-11-15T16:43:56;8.65;;;6.95;;
20369;SDS011;10344;47.592;9.600;2022-11-15T16:46:25;7.90;;;6.78;;
20369;SDS011;10344;47.592;9.600;2022-11-15T16:48:54;7.07;;;6.28;;
20369;SDS011;10344;47.592;9.600;2022-11-15T16:51:24;7.97;;;6.30;;
20369;SDS011;10344;47.592;9.600;2022-11-15T16:53:52;7.22;;;6.35;;
20369;SDS011;10344;47.592;9.600;2022-11-15T16:56:29;8.75;;;6.80;;
20369;SDS011;10344;47.592;9.600;2022-11-15T16:59:31;7.82;;;6.38;;
20369;SDS011;10344;47.592;9.600;2022-11-15T17:02:04;7.13;;;6.20;;
20369;SDS011;10344;47.592;9.600;2022-11-15T17:04:49;8.27;;;6.30;;
20369;SDS011;10344;47.592;9.600;2022-11-15T17:07:50;6.78;;;5.82;;
20369;SDS011;10344;47.592;9.600;2022-11-15T17:10:45;6.47;;;5.55;;
20369;SDS011;10344;47.592;9.600;2022-11-15T17:13:20;6.77;;;5.97;;
20369;SDS011;10344;47.592;9.600;2022-11-15T17:16:15;7.40;;;6.00;;
20369;SDS011;10344;47.592;9.600;2022-11-15T17:19:03;7.65;;;5.95;;
20369;SDS011;10344;47.592;9.600;2022-11-15T17:21:37;7.80;;;6.13;;
20369;SDS011;10344;47.592;9.600;2022-11-15T17:24:35;6.90;;;5.90;;
20369;SDS011;10344;47.592;9.600;2022-11-15T17:27:01;7.82;;;6.00;;
20369;SDS011;10344;47.592;9.600;2022-11-15T17:29:41;7.43;;;5.95;;
20369;SDS011;10344;47.592;9.600;2022-11-15T17:35:57;6.53;;;5.50;;
20369;SDS011;10344;47.592;9.600;2022-11-15T17:38:25;7.00;;;5.60;;
20369;SDS011;10344;47.592;9.600;2022-11-15T19:59:58;6.70;;;5.20;;
20369;SDS011;10344;47.592;9.600;2022-11-15T20:13:42;5.50;;;4.45;;
20369;SDS011;10344;47.592;9.600;2022-11-15T20:33:59;5.35;;;4.85;;
20369;SDS011;10344;47.592;9.600;2022-11-15T20:37:05;6.28;;;4.82;;
20369;SDS011;10344;47.592;9.600;2022-11-15T20:47:01;6.38;;;4.70;;
